Aviation Digital Data Service (ADDS)

Output produced by METARs form (2011 UTC 19 October 2017)
found at http://www.aviationweather.gov/adds/metars/
 
METAR text: ZBTJ 192000Z VRB01MPS 0100 R34L/P2000U R34R/0200N FG NSC 09/08 Q1020 BECMG TL2100 0200
Conditions at: ZBTJ (TIANJIN/ZHANGGUI, CN) observed 2000 UTC 19 October 2017
Temperature: 9.0°C (48°F)
Dewpoint: 8.0°C (46°F) [RH = 93%]
Pressure (altimeter): 30.12 inches Hg (1020.0 mb)
Winds: variable direction winds at 2 MPH (2 knots; 1.0 m/s)
Visibility: 0.06 miles (0.10 km)
Ceiling: at least 12,000 feet AGL
Clouds: sky clear below 12,000 feet AGL
Weather: FG  (fog)

METAR text: ZBTJ 191930Z 00000MPS 0200 R34L/0300VP2000D R34R/0200N FG NSC 09/08 Q1020 BECMG TL2100 0100 FG
Conditions at: ZBTJ (TIANJIN/ZHANGGUI, CN) observed 1930 UTC 19 October 2017
Temperature: 9.0°C (48°F)
Dewpoint: 8.0°C (46°F) [RH = 93%]
Pressure (altimeter): 30.12 inches Hg (1020.0 mb)
Winds: calm
Visibility: 0.12 miles (0.19 km)
Ceiling: at least 12,000 feet AGL
Clouds: sky clear below 12,000 feet AGL
Weather: FG  (fog)

METAR text: ZBTJ 191900Z VRB01MPS 0900 R34L/P2000U R34R/0150N FG NSC 09/08 Q1020 BECMG TL2000 0700 FG
Conditions at: ZBTJ (TIANJIN/ZHANGGUI, CN) observed 1900 UTC 19 October 2017
Temperature: 9.0°C (48°F)
Dewpoint: 8.0°C (46°F) [RH = 93%]
Pressure (altimeter): 30.12 inches Hg (1020.0 mb)
Winds: variable direction winds at 2 MPH (2 knots; 1.0 m/s)
Visibility: 0.56 miles (0.90 km)
Ceiling: at least 12,000 feet AGL
Clouds: sky clear below 12,000 feet AGL
Weather: FG  (fog)

METAR text: ZBTJ 191830Z 19001MPS 0800 R34L/2000D R34R/0175N FG NSC 10/09 Q1020 NOSIG
Conditions at: ZBTJ (TIANJIN/ZHANGGUI, CN) observed 1830 UTC 19 October 2017
Temperature: 10.0°C (50°F)
Dewpoint: 9.0°C (48°F) [RH = 93%]
Pressure (altimeter): 30.12 inches Hg (1020.0 mb)
Winds: from the S (190 degrees) at 2 MPH (2 knots; 1.0 m/s)
Visibility: 0.50 miles (0.80 km)
Ceiling: at least 12,000 feet AGL
Clouds: sky clear below 12,000 feet AGL
Weather: FG  (fog)

METAR text: ZBTJ 191800Z 16001MPS 0800 R34L/P2000D R34R/0550V2000N FG NSC 11/09 Q1021 BECMG TL1930 0500 FG
Conditions at: ZBTJ (TIANJIN/ZHANGGUI, CN) observed 1800 UTC 19 October 2017
Temperature: 11.0°C (52°F)
Dewpoint: 9.0°C (48°F) [RH = 87%]
Pressure (altimeter): 30.15 inches Hg (1021.0 mb)
Winds: from the SSE (160 degrees) at 2 MPH (2 knots; 1.0 m/s)
Visibility: 0.50 miles (0.80 km)
Ceiling: at least 12,000 feet AGL
Clouds: sky clear below 12,000 feet AGL
Weather: FG  (fog)

METAR text: ZBTJ 191730Z 16001MPS 0500 R16R/0325V1000U R16L/P2000U FG NSC 10/09 Q1021 BECMG TL1830 0300 FG
Conditions at: ZBTJ (TIANJIN/ZHANGGUI, CN) observed 1730 UTC 19 October 2017
Temperature: 10.0°C (50°F)
Dewpoint: 9.0°C (48°F) [RH = 93%]
Pressure (altimeter): 30.15 inches Hg (1021.0 mb)
Winds: from the SSE (160 degrees) at 2 MPH (2 knots; 1.0 m/s)
Visibility: 0.31 miles (0.50 km)
Ceiling: at least 12,000 feet AGL
Clouds: sky clear below 12,000 feet AGL
Weather: FG  (fog)

METAR text: ZBTJ 191700Z 14001MPS 0300 R16R/P2000N R16L/0275V0400U FG NSC 10/09 Q1021 BECMG TL1800 0350
Conditions at: ZBTJ (TIANJIN/ZHANGGUI, CN) observed 1700 UTC 19 October 2017
Temperature: 10.0°C (50°F)
Dewpoint: 9.0°C (48°F) [RH = 93%]
Pressure (altimeter): 30.15 inches Hg (1021.0 mb)
Winds: from the SE (140 degrees) at 2 MPH (2 knots; 1.0 m/s)
Visibility: 0.19 miles (0.31 km)
Ceiling: at least 12,000 feet AGL
Clouds: sky clear below 12,000 feet AGL
Weather: FG  (fog)

METAR text: ZBTJ 191630Z 00000MPS 1400 R16R/P2000N R16L/0275D BR MIFG NSC 10/09 Q1021 NOSIG
Conditions at: ZBTJ (TIANJIN/ZHANGGUI, CN) observed 1630 UTC 19 October 2017
Temperature: 10.0°C (50°F)
Dewpoint: 9.0°C (48°F) [RH = 93%]
Pressure (altimeter): 30.15 inches Hg (1021.0 mb)
Winds: calm
Visibility: 0.87 miles (1.40 km)
Ceiling: at least 12,000 feet AGL
Clouds: sky clear below 12,000 feet AGL
Weather: MIFG BR  (shallow fog, mist)

METAR text: ZBTJ 191600Z 18001MPS 1400 R16R/P2000N R16L/0400V0600N BR PRFG NSC 11/10 Q1021 BECMG TL1730 0700 FG
Conditions at: ZBTJ (TIANJIN/ZHANGGUI, CN) observed 1600 UTC 19 October 2017
Temperature: 11.0°C (52°F)
Dewpoint: 10.0°C (50°F) [RH = 94%]
Pressure (altimeter): 30.15 inches Hg (1021.0 mb)
Winds: from the S (180 degrees) at 2 MPH (2 knots; 1.0 m/s)
Visibility: 0.87 miles (1.40 km)
Ceiling: at least 12,000 feet AGL
Clouds: sky clear below 12,000 feet AGL
Weather: PRFG BR  (partial fog, mist)

METAR text: ZBTJ 191530Z 18001MPS 1400 R16R/P2000N R16L/0700D BR PRFG NSC 11/10 Q1021 NOSIG
Conditions at: ZBTJ (TIANJIN/ZHANGGUI, CN) observed 1530 UTC 19 October 2017
Temperature: 11.0°C (52°F)
Dewpoint: 10.0°C (50°F) [RH = 94%]
Pressure (altimeter): 30.15 inches Hg (1021.0 mb)
Winds: from the S (180 degrees) at 2 MPH (2 knots; 1.0 m/s)
Visibility: 0.87 miles (1.40 km)
Ceiling: at least 12,000 feet AGL
Clouds: sky clear below 12,000 feet AGL
Weather: PRFG BR  (partial fog, mist)

METAR text: ZBTJ 191500Z 22001MPS 1800 BR NSC 12/10 Q1021 BECMG TL1630 1400 BR
Conditions at: ZBTJ (TIANJIN/ZHANGGUI, CN) observed 1500 UTC 19 October 2017
Temperature: 12.0°C (54°F)
Dewpoint: 10.0°C (50°F) [RH = 88%]
Pressure (altimeter): 30.15 inches Hg (1021.0 mb)
Winds: from the SW (220 degrees) at 2 MPH (2 knots; 1.0 m/s)
Visibility: 1.12 miles (1.80 km)
Ceiling: at least 12,000 feet AGL
Clouds: sky clear below 12,000 feet AGL
Weather: BR  (mist)

METAR text: ZBTJ 191430Z 21002MPS 1800 BR NSC 12/11 Q1021 NOSIG
Conditions at: ZBTJ (TIANJIN/ZHANGGUI, CN) observed 1430 UTC 19 October 2017
Temperature: 12.0°C (54°F)
Dewpoint: 11.0°C (52°F) [RH = 94%]
Pressure (altimeter): 30.15 inches Hg (1021.0 mb)
Winds: from the SSW (210 degrees) at 5 MPH (4 knots; 2.1 m/s)
Visibility: 1.12 miles (1.80 km)
Ceiling: at least 12,000 feet AGL
Clouds: sky clear below 12,000 feet AGL
Weather: BR  (mist)

METAR text: ZBTJ 191400Z 18001MPS 1800 BR NSC 12/10 Q1021 BECMG TL1530 1400 BR
Conditions at: ZBTJ (TIANJIN/ZHANGGUI, CN) observed 1400 UTC 19 October 2017
Temperature: 12.0°C (54°F)
Dewpoint: 10.0°C (50°F) [RH = 88%]
Pressure (altimeter): 30.15 inches Hg (1021.0 mb)
Winds: from the S (180 degrees) at 2 MPH (2 knots; 1.0 m/s)
Visibility: 1.12 miles (1.80 km)
Ceiling: at least 12,000 feet AGL
Clouds: sky clear below 12,000 feet AGL
Weather: BR  (mist)

METAR text: ZBTJ 191330Z 17001MPS 1800 BR NSC 11/10 Q1021 NOSIG
Conditions at: ZBTJ (TIANJIN/ZHANGGUI, CN) observed 1330 UTC 19 October 2017
Temperature: 11.0°C (52°F)
Dewpoint: 10.0°C (50°F) [RH = 94%]
Pressure (altimeter): 30.15 inches Hg (1021.0 mb)
Winds: from the S (170 degrees) at 2 MPH (2 knots; 1.0 m/s)
Visibility: 1.12 miles (1.80 km)
Ceiling: at least 12,000 feet AGL
Clouds: sky clear below 12,000 feet AGL
Weather: BR  (mist)

METAR text: ZBTJ 191300Z 17001MPS 2500 BR NSC 12/10 Q1020 BECMG TL1430 1400 BR
Conditions at: ZBTJ (TIANJIN/ZHANGGUI, CN) observed 1300 UTC 19 October 2017
Temperature: 12.0°C (54°F)
Dewpoint: 10.0°C (50°F) [RH = 88%]
Pressure (altimeter): 30.12 inches Hg (1020.0 mb)
Winds: from the S (170 degrees) at 2 MPH (2 knots; 1.0 m/s)
Visibility: 1.55 miles (2.49 km)
Ceiling: at least 12,000 feet AGL
Clouds: sky clear below 12,000 feet AGL
Weather: BR  (mist)

METAR text: ZBTJ 191230Z 00000MPS 2800 BR NSC 13/10 Q1020 NOSIG
Conditions at: ZBTJ (TIANJIN/ZHANGGUI, CN) observed 1230 UTC 19 October 2017
Temperature: 13.0°C (55°F)
Dewpoint: 10.0°C (50°F) [RH = 82%]
Pressure (altimeter): 30.12 inches Hg (1020.0 mb)
Winds: calm
Visibility: 1.74 miles (2.80 km)
Ceiling: at least 12,000 feet AGL
Clouds: sky clear below 12,000 feet AGL
Weather: BR  (mist)

METAR text: ZBTJ 191200Z 26001MPS 3000 BR NSC 14/11 Q1020 BECMG TL1300 2800 BR
Conditions at: ZBTJ (TIANJIN/ZHANGGUI, CN) observed 1200 UTC 19 October 2017
Temperature: 14.0°C (57°F)
Dewpoint: 11.0°C (52°F) [RH = 82%]
Pressure (altimeter): 30.12 inches Hg (1020.0 mb)
Winds: from the W (260 degrees) at 2 MPH (2 knots; 1.0 m/s)
Visibility: 1.86 miles (2.99 km)
Ceiling: at least 12,000 feet AGL
Clouds: sky clear below 12,000 feet AGL
Weather: BR  (mist)

METAR text: ZBTJ 191130Z 25001MPS 3500 BR NSC 15/11 Q1020 BECMG TL1230 2800 BR
Conditions at: ZBTJ (TIANJIN/ZHANGGUI, CN) observed 1130 UTC 19 October 2017
Temperature: 15.0°C (59°F)
Dewpoint: 11.0°C (52°F) [RH = 77%]
Pressure (altimeter): 30.12 inches Hg (1020.0 mb)
Winds: from the WSW (250 degrees) at 2 MPH (2 knots; 1.0 m/s)
Visibility: 2.17 miles (3.49 km)
Ceiling: at least 12,000 feet AGL
Clouds: sky clear below 12,000 feet AGL
Weather: BR  (mist)

METAR text: ZBTJ 191100Z 24001MPS 4000 BR NSC 14/10 Q1020 BECMG TL1230 2800 BR
Conditions at: ZBTJ (TIANJIN/ZHANGGUI, CN) observed 1100 UTC 19 October 2017
Temperature: 14.0°C (57°F)
Dewpoint: 10.0°C (50°F) [RH = 77%]
Pressure (altimeter): 30.12 inches Hg (1020.0 mb)
Winds: from the WSW (240 degrees) at 2 MPH (2 knots; 1.0 m/s)
Visibility: 2.49 miles (4.01 km)
Ceiling: at least 12,000 feet AGL
Clouds: sky clear below 12,000 feet AGL
Weather: BR  (mist)

METAR text: ZBTJ 191030Z 19001MPS 5000 BR NSC 14/11 Q1019 NOSIG
Conditions at: ZBTJ (TIANJIN/ZHANGGUI, CN) observed 1030 UTC 19 October 2017
Temperature: 14.0°C (57°F)
Dewpoint: 11.0°C (52°F) [RH = 82%]
Pressure (altimeter): 30.09 inches Hg (1019.0 mb)
Winds: from the S (190 degrees) at 2 MPH (2 knots; 1.0 m/s)
Visibility: 3 miles (5 km)
Ceiling: at least 12,000 feet AGL
Clouds: sky clear below 12,000 feet AGL
Weather: BR  (mist)

METAR text: ZBTJ 191000Z VRB01MPS 5000 HZ NSC 15/10 Q1019 NOSIG
Conditions at: ZBTJ (TIANJIN/ZHANGGUI, CN) observed 1000 UTC 19 October 2017
Temperature: 15.0°C (59°F)
Dewpoint: 10.0°C (50°F) [RH = 72%]
Pressure (altimeter): 30.09 inches Hg (1019.0 mb)
Winds: variable direction winds at 2 MPH (2 knots; 1.0 m/s)
Visibility: 3 miles (5 km)
Ceiling: at least 12,000 feet AGL
Clouds: sky clear below 12,000 feet AGL
Weather: HZ  (haze)

METAR text: ZBTJ 190930Z 06002MPS 020V110 5000 HZ NSC 16/10 Q1019 NOSIG
Conditions at: ZBTJ (TIANJIN/ZHANGGUI, CN) observed 0930 UTC 19 October 2017
Temperature: 16.0°C (61°F)
Dewpoint: 10.0°C (50°F) [RH = 68%]
Pressure (altimeter): 30.09 inches Hg (1019.0 mb)
Winds: from the ENE (60 degrees) at 5 MPH (4 knots; 2.1 m/s)
Visibility: 3 miles (5 km)
Ceiling: at least 12,000 feet AGL
Clouds: sky clear below 12,000 feet AGL
Weather: HZ  (haze)

METAR text: ZBTJ 190900Z VRB01MPS 5000 HZ NSC 17/10 Q1019 BECMG TL1030 2800 BR
Conditions at: ZBTJ (TIANJIN/ZHANGGUI, CN) observed 0900 UTC 19 October 2017
Temperature: 17.0°C (63°F)
Dewpoint: 10.0°C (50°F) [RH = 63%]
Pressure (altimeter): 30.09 inches Hg (1019.0 mb)
Winds: variable direction winds at 2 MPH (2 knots; 1.0 m/s)
Visibility: 3 miles (5 km)
Ceiling: at least 12,000 feet AGL
Clouds: sky clear below 12,000 feet AGL
Weather: HZ  (haze)

METAR text: ZBTJ 190830Z 32001MPS 6000 NSC 17/10 Q1019 NOSIG
Conditions at: ZBTJ (TIANJIN/ZHANGGUI, CN) observed 0830 UTC 19 October 2017
Temperature: 17.0°C (63°F)
Dewpoint: 10.0°C (50°F) [RH = 63%]
Pressure (altimeter): 30.09 inches Hg (1019.0 mb)
Winds: from the NW (320 degrees) at 2 MPH (2 knots; 1.0 m/s)
Visibility: 4 miles (6 km)
Ceiling: at least 12,000 feet AGL
Clouds: sky clear below 12,000 feet AGL
Weather: no significant weather observed at this time

METAR text: ZBTJ 190800Z 29002MPS 250V340 6000 NSC 18/10 Q1019 NOSIG
Conditions at: ZBTJ (TIANJIN/ZHANGGUI, CN) observed 0800 UTC 19 October 2017
Temperature: 18.0°C (64°F)
Dewpoint: 10.0°C (50°F) [RH = 59%]
Pressure (altimeter): 30.09 inches Hg (1019.0 mb)
Winds: from the WNW (290 degrees) at 5 MPH (4 knots; 2.1 m/s)
Visibility: 4 miles (6 km)
Ceiling: at least 12,000 feet AGL
Clouds: sky clear below 12,000 feet AGL
Weather: no significant weather observed at this time

METAR text: ZBTJ 190730Z 31002MPS 270V350 6000 NSC 18/10 Q1019 NOSIG
Conditions at: ZBTJ (TIANJIN/ZHANGGUI, CN) observed 0730 UTC 19 October 2017
Temperature: 18.0°C (64°F)
Dewpoint: 10.0°C (50°F) [RH = 59%]
Pressure (altimeter): 30.09 inches Hg (1019.0 mb)
Winds: from the NW (310 degrees) at 5 MPH (4 knots; 2.1 m/s)
Visibility: 4 miles (6 km)
Ceiling: at least 12,000 feet AGL
Clouds: sky clear below 12,000 feet AGL
Weather: no significant weather observed at this time

METAR text: ZBTJ 190700Z 33002MPS 300V030 6000 NSC 18/09 Q1019 NOSIG
Conditions at: ZBTJ (TIANJIN/ZHANGGUI, CN) observed 0700 UTC 19 October 2017
Temperature: 18.0°C (64°F)
Dewpoint: 9.0°C (48°F) [RH = 56%]
Pressure (altimeter): 30.09 inches Hg (1019.0 mb)
Winds: from the NNW (330 degrees) at 5 MPH (4 knots; 2.1 m/s)
Visibility: 4 miles (6 km)
Ceiling: at least 12,000 feet AGL
Clouds: sky clear below 12,000 feet AGL
Weather: no significant weather observed at this time

METAR text: ZBTJ 190630Z 33003MPS 290V360 6000 NSC 18/10 Q1019 NOSIG
Conditions at: ZBTJ (TIANJIN/ZHANGGUI, CN) observed 0630 UTC 19 October 2017
Temperature: 18.0°C (64°F)
Dewpoint: 10.0°C (50°F) [RH = 59%]
Pressure (altimeter): 30.09 inches Hg (1019.0 mb)
Winds: from the NNW (330 degrees) at 7 MPH (6 knots; 3.1 m/s)
Visibility: 4 miles (6 km)
Ceiling: at least 12,000 feet AGL
Clouds: sky clear below 12,000 feet AGL
Weather: no significant weather observed at this time

METAR text: ZBTJ 190600Z 31003MPS 270V350 5000 HZ NSC 18/10 Q1019 NOSIG
Conditions at: ZBTJ (TIANJIN/ZHANGGUI, CN) observed 0600 UTC 19 October 2017
Temperature: 18.0°C (64°F)
Dewpoint: 10.0°C (50°F) [RH = 59%]
Pressure (altimeter): 30.09 inches Hg (1019.0 mb)
Winds: from the NW (310 degrees) at 7 MPH (6 knots; 3.1 m/s)
Visibility: 3 miles (5 km)
Ceiling: at least 12,000 feet AGL
Clouds: sky clear below 12,000 feet AGL
Weather: HZ  (haze)

METAR text: ZBTJ 190530Z VRB02MPS 4000 HZ FEW016 17/11 Q1020 NOSIG
Conditions at: ZBTJ (TIANJIN/ZHANGGUI, CN) observed 0530 UTC 19 October 2017
Temperature: 17.0°C (63°F)
Dewpoint: 11.0°C (52°F) [RH = 68%]
Pressure (altimeter): 30.12 inches Hg (1020.0 mb)
Winds: variable direction winds at 5 MPH (4 knots; 2.1 m/s)
Visibility: 2.49 miles (4.01 km)
Ceiling: at least 12,000 feet AGL
Clouds: few clouds at 1600 feet AGL
Weather: HZ  (haze)

METAR text: ZBTJ 190500Z 34004MPS 300V010 3500 BR SCT015 16/11 Q1020 NOSIG
Conditions at: ZBTJ (TIANJIN/ZHANGGUI, CN) observed 0500 UTC 19 October 2017
Temperature: 16.0°C (61°F)
Dewpoint: 11.0°C (52°F) [RH = 72%]
Pressure (altimeter): 30.12 inches Hg (1020.0 mb)
Winds: from the NNW (340 degrees) at 9 MPH (8 knots; 4.2 m/s)
Visibility: 2.17 miles (3.49 km)
Ceiling: at least 12,000 feet AGL
Clouds: scattered clouds at 1500 feet AGL
Weather: BR  (mist)

METAR text: ZBTJ 190430Z 32003MPS 280V350 3500 BR BKN013 16/11 Q1020 NOSIG
Conditions at: ZBTJ (TIANJIN/ZHANGGUI, CN) observed 0430 UTC 19 October 2017
Temperature: 16.0°C (61°F)
Dewpoint: 11.0°C (52°F) [RH = 72%]
Pressure (altimeter): 30.12 inches Hg (1020.0 mb)
Winds: from the NW (320 degrees) at 7 MPH (6 knots; 3.1 m/s)
Visibility: 2.17 miles (3.49 km)
Ceiling: 1300 feet AGL
Clouds: broken clouds at 1300 feet AGL
Weather: BR  (mist)

METAR text: ZBTJ 190400Z 35002MPS 310V040 3500 BR BKN013 15/11 Q1021 BECMG TL0530 BKN015
Conditions at: ZBTJ (TIANJIN/ZHANGGUI, CN) observed 0400 UTC 19 October 2017
Temperature: 15.0°C (59°F)
Dewpoint: 11.0°C (52°F) [RH = 77%]
Pressure (altimeter): 30.15 inches Hg (1021.0 mb)
Winds: from the N (350 degrees) at 5 MPH (4 knots; 2.1 m/s)
Visibility: 2.17 miles (3.49 km)
Ceiling: 1300 feet AGL
Clouds: broken clouds at 1300 feet AGL
Weather: BR  (mist)

METAR text: ZBTJ 190330Z 31002MPS 270V360 3000 BR BKN011 14/11 Q1021 NOSIG
Conditions at: ZBTJ (TIANJIN/ZHANGGUI, CN) observed 0330 UTC 19 October 2017
Temperature: 14.0°C (57°F)
Dewpoint: 11.0°C (52°F) [RH = 82%]
Pressure (altimeter): 30.15 inches Hg (1021.0 mb)
Winds: from the NW (310 degrees) at 5 MPH (4 knots; 2.1 m/s)
Visibility: 1.86 miles (2.99 km)
Ceiling: 1100 feet AGL
Clouds: broken clouds at 1100 feet AGL
Weather: BR  (mist)

METAR text: ZBTJ 190300Z 30002MPS 180V340 3000 BR BKN011 14/11 Q1021 BECMG TL0430 BKN015
Conditions at: ZBTJ (TIANJIN/ZHANGGUI, CN) observed 0300 UTC 19 October 2017
Temperature: 14.0°C (57°F)
Dewpoint: 11.0°C (52°F) [RH = 82%]
Pressure (altimeter): 30.15 inches Hg (1021.0 mb)
Winds: from the WNW (300 degrees) at 5 MPH (4 knots; 2.1 m/s)
Visibility: 1.86 miles (2.99 km)
Ceiling: 1100 feet AGL
Clouds: broken clouds at 1100 feet AGL
Weather: BR  (mist)

METAR text: ZBTJ 190230Z 29002MPS 260V360 3000 BR BKN011 13/10 Q1022 NOSIG
Conditions at: ZBTJ (TIANJIN/ZHANGGUI, CN) observed 0230 UTC 19 October 2017
Temperature: 13.0°C (55°F)
Dewpoint: 10.0°C (50°F) [RH = 82%]
Pressure (altimeter): 30.18 inches Hg (1022.0 mb)
Winds: from the WNW (290 degrees) at 5 MPH (4 knots; 2.1 m/s)
Visibility: 1.86 miles (2.99 km)
Ceiling: 1100 feet AGL
Clouds: broken clouds at 1100 feet AGL
Weather: BR  (mist)

METAR text: ZBTJ 190200Z 28002MPS 230V330 2400 BR BKN011 13/11 Q1022 BECMG TL0330 3000 BKN015
Conditions at: ZBTJ (TIANJIN/ZHANGGUI, CN) observed 0200 UTC 19 October 2017
Temperature: 13.0°C (55°F)
Dewpoint: 11.0°C (52°F) [RH = 88%]
Pressure (altimeter): 30.18 inches Hg (1022.0 mb)
Winds: from the W (280 degrees) at 5 MPH (4 knots; 2.1 m/s)
Visibility: 1.49 miles (2.40 km)
Ceiling: 1100 feet AGL
Clouds: broken clouds at 1100 feet AGL
Weather: BR  (mist)

METAR text: ZBTJ 190130Z VRB02MPS 2200 BR BKN011 13/11 Q1022 NOSIG
Conditions at: ZBTJ (TIANJIN/ZHANGGUI, CN) observed 0130 UTC 19 October 2017
Temperature: 13.0°C (55°F)
Dewpoint: 11.0°C (52°F) [RH = 88%]
Pressure (altimeter): 30.18 inches Hg (1022.0 mb)
Winds: variable direction winds at 5 MPH (4 knots; 2.1 m/s)
Visibility: 1.37 miles (2.20 km)
Ceiling: 1100 feet AGL
Clouds: broken clouds at 1100 feet AGL
Weather: BR  (mist)

METAR text: ZBTJ 190100Z 24003MPS 1500 R34L/1500N R34R/1300U BR OVC010 12/11 Q1022 BECMG TL0230 3000 BKN015
Conditions at: ZBTJ (TIANJIN/ZHANGGUI, CN) observed 0100 UTC 19 October 2017
Temperature: 12.0°C (54°F)
Dewpoint: 11.0°C (52°F) [RH = 94%]
Pressure (altimeter): 30.18 inches Hg (1022.0 mb)
Winds: from the WSW (240 degrees) at 7 MPH (6 knots; 3.1 m/s)
Visibility: 0.93 miles (1.50 km)
Ceiling: 1000 feet AGL
Clouds: overcast cloud deck at 1000 feet AGL
Weather: BR  (mist)

METAR text: ZBTJ 190030Z 23002MPS 1200 R34L/1300N R34R/1200N BR OVC006 12/11 Q1022 BECMG TL0130 1500 NSC
Conditions at: ZBTJ (TIANJIN/ZHANGGUI, CN) observed 0030 UTC 19 October 2017
Temperature: 12.0°C (54°F)
Dewpoint: 11.0°C (52°F) [RH = 94%]
Pressure (altimeter): 30.18 inches Hg (1022.0 mb)
Winds: from the SW (230 degrees) at 5 MPH (4 knots; 2.1 m/s)
Visibility: 0.75 miles (1.21 km)
Ceiling: 600 feet AGL
Clouds: overcast cloud deck at 600 feet AGL
Weather: BR  (mist)

METAR text: ZBTJ 190000Z 24002MPS 0800 R34L/1100N R34R/1200N FG OVC003 12/11 Q1022 BECMG TL0130 1500 BR NSC
Conditions at: ZBTJ (TIANJIN/ZHANGGUI, CN) observed 0000 UTC 19 October 2017
Temperature: 12.0°C (54°F)
Dewpoint: 11.0°C (52°F) [RH = 94%]
Pressure (altimeter): 30.18 inches Hg (1022.0 mb)
Winds: from the WSW (240 degrees) at 5 MPH (4 knots; 2.1 m/s)
Visibility: 0.50 miles (0.80 km)
Ceiling: 300 feet AGL
Clouds: overcast cloud deck at 300 feet AGL
Weather: FG  (fog)

METAR text: ZBTJ 182330Z 24002MPS 210V270 0550 R34L/0900V1100N R16L/1300N FG NSC 12/11 Q1022 BECMG TL0030 0600
Conditions at: ZBTJ (TIANJIN/ZHANGGUI, CN) observed 2330 UTC 18 October 2017
Temperature: 12.0°C (54°F)
Dewpoint: 11.0°C (52°F) [RH = 94%]
Pressure (altimeter): 30.18 inches Hg (1022.0 mb)
Winds: from the WSW (240 degrees) at 5 MPH (4 knots; 2.1 m/s)
Visibility: 0.34 miles (0.55 km)
Ceiling: at least 12,000 feet AGL
Clouds: sky clear below 12,000 feet AGL
Weather: FG  (fog)

METAR text: ZBTJ 182300Z 23002MPS 210V270 0500 R34L/0800V1100D R16L/0550N FG NSC 11/10 Q1022 BECMG TL0030 0600
Conditions at: ZBTJ (TIANJIN/ZHANGGUI, CN) observed 2300 UTC 18 October 2017
Temperature: 11.0°C (52°F)
Dewpoint: 10.0°C (50°F) [RH = 94%]
Pressure (altimeter): 30.18 inches Hg (1022.0 mb)
Winds: from the SW (230 degrees) at 5 MPH (4 knots; 2.1 m/s)
Visibility: 0.31 miles (0.50 km)
Ceiling: at least 12,000 feet AGL
Clouds: sky clear below 12,000 feet AGL
Weather: FG  (fog)

METAR text: ZBTJ 182230Z VRB01MPS 1100 R16R/1300V1700D R16L/0800V1700D BR NSC 11/10 Q1021 BECMG TL2300 0700 FG
Conditions at: ZBTJ (TIANJIN/ZHANGGUI, CN) observed 2230 UTC 18 October 2017
Temperature: 11.0°C (52°F)
Dewpoint: 10.0°C (50°F) [RH = 94%]
Pressure (altimeter): 30.15 inches Hg (1021.0 mb)
Winds: variable direction winds at 2 MPH (2 knots; 1.0 m/s)
Visibility: 0.68 miles (1.09 km)
Ceiling: at least 12,000 feet AGL
Clouds: sky clear below 12,000 feet AGL
Weather: BR  (mist)

METAR text: ZBTJ 182200Z 24002MPS 1400 R16R/P2000D R16L/P2000N BR NSC 12/10 Q1021 BECMG TL2300 0700 FG
Conditions at: ZBTJ (TIANJIN/ZHANGGUI, CN) observed 2200 UTC 18 October 2017
Temperature: 12.0°C (54°F)
Dewpoint: 10.0°C (50°F) [RH = 88%]
Pressure (altimeter): 30.15 inches Hg (1021.0 mb)
Winds: from the WSW (240 degrees) at 5 MPH (4 knots; 2.1 m/s)
Visibility: 0.87 miles (1.40 km)
Ceiling: at least 12,000 feet AGL
Clouds: sky clear below 12,000 feet AGL
Weather: BR  (mist)

METAR text: ZBTJ 182130Z 25001MPS 1800 BR NSC 13/11 Q1021 BECMG TL2200 1400 BR
Conditions at: ZBTJ (TIANJIN/ZHANGGUI, CN) observed 2130 UTC 18 October 2017
Temperature: 13.0°C (55°F)
Dewpoint: 11.0°C (52°F) [RH = 88%]
Pressure (altimeter): 30.15 inches Hg (1021.0 mb)
Winds: from the WSW (250 degrees) at 2 MPH (2 knots; 1.0 m/s)
Visibility: 1.12 miles (1.80 km)
Ceiling: at least 12,000 feet AGL
Clouds: sky clear below 12,000 feet AGL
Weather: BR  (mist)

METAR text: ZBTJ 182100Z 27001MPS 2000 BR BKN026 13/11 Q1021 BECMG TL2200 1400 BR
Conditions at: ZBTJ (TIANJIN/ZHANGGUI, CN) observed 2100 UTC 18 October 2017
Temperature: 13.0°C (55°F)
Dewpoint: 11.0°C (52°F) [RH = 88%]
Pressure (altimeter): 30.15 inches Hg (1021.0 mb)
Winds: from the W (270 degrees) at 2 MPH (2 knots; 1.0 m/s)
Visibility: 1.24 miles (2.00 km)
Ceiling: 2600 feet AGL
Clouds: broken clouds at 2600 feet AGL
Weather: BR  (mist)

METAR text: ZBTJ 182030Z 28002MPS 2000 BR OVC026 13/11 Q1021 BECMG TL2130 1400 BR
Conditions at: ZBTJ (TIANJIN/ZHANGGUI, CN) observed 2030 UTC 18 October 2017
Temperature: 13.0°C (55°F)
Dewpoint: 11.0°C (52°F) [RH = 88%]
Pressure (altimeter): 30.15 inches Hg (1021.0 mb)
Winds: from the W (280 degrees) at 5 MPH (4 knots; 2.1 m/s)
Visibility: 1.24 miles (2.00 km)
Ceiling: 2600 feet AGL
Clouds: overcast cloud deck at 2600 feet AGL
Weather: BR  (mist)

METAR text: ZBTJ 182000Z 30002MPS 2000 BR OVC026 13/11 Q1021 BECMG TL2130 1400 BR
Conditions at: ZBTJ (TIANJIN/ZHANGGUI, CN) observed 2000 UTC 18 October 2017
Temperature: 13.0°C (55°F)
Dewpoint: 11.0°C (52°F) [RH = 88%]
Pressure (altimeter): 30.15 inches Hg (1021.0 mb)
Winds: from the WNW (300 degrees) at 5 MPH (4 knots; 2.1 m/s)
Visibility: 1.24 miles (2.00 km)
Ceiling: 2600 feet AGL
Clouds: overcast cloud deck at 2600 feet AGL
Weather: BR  (mist)

METAR text: ZBTJ 181930Z 29002MPS 2000 BR OVC026 13/11 Q1021 NOSIG
Conditions at: ZBTJ (TIANJIN/ZHANGGUI, CN) observed 1930 UTC 18 October 2017
Temperature: 13.0°C (55°F)
Dewpoint: 11.0°C (52°F) [RH = 88%]
Pressure (altimeter): 30.15 inches Hg (1021.0 mb)
Winds: from the WNW (290 degrees) at 5 MPH (4 knots; 2.1 m/s)
Visibility: 1.24 miles (2.00 km)
Ceiling: 2600 feet AGL
Clouds: overcast cloud deck at 2600 feet AGL
Weather: BR  (mist)

METAR text: ZBTJ 181900Z 32002MPS 2000 BR OVC026 13/11 Q1021 NOSIG
Conditions at: ZBTJ (TIANJIN/ZHANGGUI, CN) observed 1900 UTC 18 October 2017
Temperature: 13.0°C (55°F)
Dewpoint: 11.0°C (52°F) [RH = 88%]
Pressure (altimeter): 30.15 inches Hg (1021.0 mb)
Winds: from the NW (320 degrees) at 5 MPH (4 knots; 2.1 m/s)
Visibility: 1.24 miles (2.00 km)
Ceiling: 2600 feet AGL
Clouds: overcast cloud deck at 2600 feet AGL
Weather: BR  (mist)

METAR text: ZBTJ 181830Z 31002MPS 2000 BR OVC026 13/11 Q1022 NOSIG
Conditions at: ZBTJ (TIANJIN/ZHANGGUI, CN) observed 1830 UTC 18 October 2017
Temperature: 13.0°C (55°F)
Dewpoint: 11.0°C (52°F) [RH = 88%]
Pressure (altimeter): 30.18 inches Hg (1022.0 mb)
Winds: from the NW (310 degrees) at 5 MPH (4 knots; 2.1 m/s)
Visibility: 1.24 miles (2.00 km)
Ceiling: 2600 feet AGL
Clouds: overcast cloud deck at 2600 feet AGL
Weather: BR  (mist)

METAR text: ZBTJ 181800Z 33002MPS 2500 BR OVC026 13/11 Q1022 NOSIG
Conditions at: ZBTJ (TIANJIN/ZHANGGUI, CN) observed 1800 UTC 18 October 2017
Temperature: 13.0°C (55°F)
Dewpoint: 11.0°C (52°F) [RH = 88%]
Pressure (altimeter): 30.18 inches Hg (1022.0 mb)
Winds: from the NNW (330 degrees) at 5 MPH (4 knots; 2.1 m/s)
Visibility: 1.55 miles (2.49 km)
Ceiling: 2600 feet AGL
Clouds: overcast cloud deck at 2600 feet AGL
Weather: BR  (mist)

METAR text: ZBTJ 181730Z 31002MPS 2500 BR OVC026 13/11 Q1022 NOSIG
Conditions at: ZBTJ (TIANJIN/ZHANGGUI, CN) observed 1730 UTC 18 October 2017
Temperature: 13.0°C (55°F)
Dewpoint: 11.0°C (52°F) [RH = 88%]
Pressure (altimeter): 30.18 inches Hg (1022.0 mb)
Winds: from the NW (310 degrees) at 5 MPH (4 knots; 2.1 m/s)
Visibility: 1.55 miles (2.49 km)
Ceiling: 2600 feet AGL
Clouds: overcast cloud deck at 2600 feet AGL
Weather: BR  (mist)

METAR text: ZBTJ 181700Z 30002MPS 2500 BR OVC026 13/11 Q1022 NOSIG
Conditions at: ZBTJ (TIANJIN/ZHANGGUI, CN) observed 1700 UTC 18 October 2017
Temperature: 13.0°C (55°F)
Dewpoint: 11.0°C (52°F) [RH = 88%]
Pressure (altimeter): 30.18 inches Hg (1022.0 mb)
Winds: from the WNW (300 degrees) at 5 MPH (4 knots; 2.1 m/s)
Visibility: 1.55 miles (2.49 km)
Ceiling: 2600 feet AGL
Clouds: overcast cloud deck at 2600 feet AGL
Weather: BR  (mist)

METAR text: ZBTJ 181630Z 28002MPS 2500 BR OVC026 13/11 Q1022 NOSIG
Conditions at: ZBTJ (TIANJIN/ZHANGGUI, CN) observed 1630 UTC 18 October 2017
Temperature: 13.0°C (55°F)
Dewpoint: 11.0°C (52°F) [RH = 88%]
Pressure (altimeter): 30.18 inches Hg (1022.0 mb)
Winds: from the W (280 degrees) at 5 MPH (4 knots; 2.1 m/s)
Visibility: 1.55 miles (2.49 km)
Ceiling: 2600 feet AGL
Clouds: overcast cloud deck at 2600 feet AGL
Weather: BR  (mist)

METAR text: ZBTJ 181600Z 28002MPS 2200 BR SCT020 13/11 Q1023 NOSIG
Conditions at: ZBTJ (TIANJIN/ZHANGGUI, CN) observed 1600 UTC 18 October 2017
Temperature: 13.0°C (55°F)
Dewpoint: 11.0°C (52°F) [RH = 88%]
Pressure (altimeter): 30.21 inches Hg (1023.0 mb)
Winds: from the W (280 degrees) at 5 MPH (4 knots; 2.1 m/s)
Visibility: 1.37 miles (2.20 km)
Ceiling: at least 12,000 feet AGL
Clouds: scattered clouds at 2000 feet AGL
Weather: BR  (mist)

METAR text: ZBTJ 181530Z 26002MPS 2200 BR SCT020 13/11 Q1023 NOSIG
Conditions at: ZBTJ (TIANJIN/ZHANGGUI, CN) observed 1530 UTC 18 October 2017
Temperature: 13.0°C (55°F)
Dewpoint: 11.0°C (52°F) [RH = 88%]
Pressure (altimeter): 30.21 inches Hg (1023.0 mb)
Winds: from the W (260 degrees) at 5 MPH (4 knots; 2.1 m/s)
Visibility: 1.37 miles (2.20 km)
Ceiling: at least 12,000 feet AGL
Clouds: scattered clouds at 2000 feet AGL
Weather: BR  (mist)

METAR text: ZBTJ 181500Z 24002MPS 2200 BR SCT020 13/11 Q1023 NOSIG
Conditions at: ZBTJ (TIANJIN/ZHANGGUI, CN) observed 1500 UTC 18 October 2017
Temperature: 13.0°C (55°F)
Dewpoint: 11.0°C (52°F) [RH = 88%]
Pressure (altimeter): 30.21 inches Hg (1023.0 mb)
Winds: from the WSW (240 degrees) at 5 MPH (4 knots; 2.1 m/s)
Visibility: 1.37 miles (2.20 km)
Ceiling: at least 12,000 feet AGL
Clouds: scattered clouds at 2000 feet AGL
Weather: BR  (mist)

METAR text: ZBTJ 181430Z VRB01MPS 2000 BR SCT020 14/11 Q1023 NOSIG
Conditions at: ZBTJ (TIANJIN/ZHANGGUI, CN) observed 1430 UTC 18 October 2017
Temperature: 14.0°C (57°F)
Dewpoint: 11.0°C (52°F) [RH = 82%]
Pressure (altimeter): 30.21 inches Hg (1023.0 mb)
Winds: variable direction winds at 2 MPH (2 knots; 1.0 m/s)
Visibility: 1.24 miles (2.00 km)
Ceiling: at least 12,000 feet AGL
Clouds: scattered clouds at 2000 feet AGL
Weather: BR  (mist)

METAR text: ZBTJ 181400Z 22001MPS 1800 BR SCT020 13/12 Q1023 NOSIG
Conditions at: ZBTJ (TIANJIN/ZHANGGUI, CN) observed 1400 UTC 18 October 2017
Temperature: 13.0°C (55°F)
Dewpoint: 12.0°C (54°F) [RH = 94%]
Pressure (altimeter): 30.21 inches Hg (1023.0 mb)
Winds: from the SW (220 degrees) at 2 MPH (2 knots; 1.0 m/s)
Visibility: 1.12 miles (1.80 km)
Ceiling: at least 12,000 feet AGL
Clouds: scattered clouds at 2000 feet AGL
Weather: BR  (mist)

METAR text: ZBTJ 181330Z 21001MPS 2000 BR NSC 13/11 Q1023 BECMG TL1430 1400 BR
Conditions at: ZBTJ (TIANJIN/ZHANGGUI, CN) observed 1330 UTC 18 October 2017
Temperature: 13.0°C (55°F)
Dewpoint: 11.0°C (52°F) [RH = 88%]
Pressure (altimeter): 30.21 inches Hg (1023.0 mb)
Winds: from the SSW (210 degrees) at 2 MPH (2 knots; 1.0 m/s)
Visibility: 1.24 miles (2.00 km)
Ceiling: at least 12,000 feet AGL
Clouds: sky clear below 12,000 feet AGL
Weather: BR  (mist)

METAR text: ZBTJ 181300Z 17001MPS 2000 BR NSC 13/11 Q1022 BECMG TL1430 1400 BR
Conditions at: ZBTJ (TIANJIN/ZHANGGUI, CN) observed 1300 UTC 18 October 2017
Temperature: 13.0°C (55°F)
Dewpoint: 11.0°C (52°F) [RH = 88%]
Pressure (altimeter): 30.18 inches Hg (1022.0 mb)
Winds: from the S (170 degrees) at 2 MPH (2 knots; 1.0 m/s)
Visibility: 1.24 miles (2.00 km)
Ceiling: at least 12,000 feet AGL
Clouds: sky clear below 12,000 feet AGL
Weather: BR  (mist)

METAR text: ZBTJ 181230Z VRB01MPS 2500 BR SCT013 13/11 Q1023 NOSIG
Conditions at: ZBTJ (TIANJIN/ZHANGGUI, CN) observed 1230 UTC 18 October 2017
Temperature: 13.0°C (55°F)
Dewpoint: 11.0°C (52°F) [RH = 88%]
Pressure (altimeter): 30.21 inches Hg (1023.0 mb)
Winds: variable direction winds at 2 MPH (2 knots; 1.0 m/s)
Visibility: 1.55 miles (2.49 km)
Ceiling: at least 12,000 feet AGL
Clouds: scattered clouds at 1300 feet AGL
Weather: BR  (mist)

METAR text: ZBTJ 181200Z VRB01MPS 2500 BR SCT013 14/12 Q1023 NOSIG
Conditions at: ZBTJ (TIANJIN/ZHANGGUI, CN) observed 1200 UTC 18 October 2017
Temperature: 14.0°C (57°F)
Dewpoint: 12.0°C (54°F) [RH = 88%]
Pressure (altimeter): 30.21 inches Hg (1023.0 mb)
Winds: variable direction winds at 2 MPH (2 knots; 1.0 m/s)
Visibility: 1.55 miles (2.49 km)
Ceiling: at least 12,000 feet AGL
Clouds: scattered clouds at 1300 feet AGL
Weather: BR  (mist)

METAR text: ZBTJ 181130Z 18001MPS 2500 BR SCT013 13/12 Q1023 NOSIG
Conditions at: ZBTJ (TIANJIN/ZHANGGUI, CN) observed 1130 UTC 18 October 2017
Temperature: 13.0°C (55°F)
Dewpoint: 12.0°C (54°F) [RH = 94%]
Pressure (altimeter): 30.21 inches Hg (1023.0 mb)
Winds: from the S (180 degrees) at 2 MPH (2 knots; 1.0 m/s)
Visibility: 1.55 miles (2.49 km)
Ceiling: at least 12,000 feet AGL
Clouds: scattered clouds at 1300 feet AGL
Weather: BR  (mist)

METAR text: ZBTJ 181100Z VRB01MPS 2500 BR SCT013 13/12 Q1023 NOSIG
Conditions at: ZBTJ (TIANJIN/ZHANGGUI, CN) observed 1100 UTC 18 October 2017
Temperature: 13.0°C (55°F)
Dewpoint: 12.0°C (54°F) [RH = 94%]
Pressure (altimeter): 30.21 inches Hg (1023.0 mb)
Winds: variable direction winds at 2 MPH (2 knots; 1.0 m/s)
Visibility: 1.55 miles (2.49 km)
Ceiling: at least 12,000 feet AGL
Clouds: scattered clouds at 1300 feet AGL
Weather: BR  (mist)

METAR text: ZBTJ 181030Z VRB01MPS 2500 BR SCT013 14/12 Q1022 NOSIG
Conditions at: ZBTJ (TIANJIN/ZHANGGUI, CN) observed 1030 UTC 18 October 2017
Temperature: 14.0°C (57°F)
Dewpoint: 12.0°C (54°F) [RH = 88%]
Pressure (altimeter): 30.18 inches Hg (1022.0 mb)
Winds: variable direction winds at 2 MPH (2 knots; 1.0 m/s)
Visibility: 1.55 miles (2.49 km)
Ceiling: at least 12,000 feet AGL
Clouds: scattered clouds at 1300 feet AGL
Weather: BR  (mist)

METAR text: ZBTJ 181000Z 06002MPS 020V080 2500 BR SCT013 14/11 Q1022 NOSIG
Conditions at: ZBTJ (TIANJIN/ZHANGGUI, CN) observed 1000 UTC 18 October 2017
Temperature: 14.0°C (57°F)
Dewpoint: 11.0°C (52°F) [RH = 82%]
Pressure (altimeter): 30.18 inches Hg (1022.0 mb)
Winds: from the ENE (60 degrees) at 5 MPH (4 knots; 2.1 m/s)
Visibility: 1.55 miles (2.49 km)
Ceiling: at least 12,000 feet AGL
Clouds: scattered clouds at 1300 feet AGL
Weather: BR  (mist)

METAR text: ZBTJ 180930Z 01002MPS 2800 BR SCT013 14/11 Q1022 NOSIG
Conditions at: ZBTJ (TIANJIN/ZHANGGUI, CN) observed 0930 UTC 18 October 2017
Temperature: 14.0°C (57°F)
Dewpoint: 11.0°C (52°F) [RH = 82%]
Pressure (altimeter): 30.18 inches Hg (1022.0 mb)
Winds: from the N (10 degrees) at 5 MPH (4 knots; 2.1 m/s)
Visibility: 1.74 miles (2.80 km)
Ceiling: at least 12,000 feet AGL
Clouds: scattered clouds at 1300 feet AGL
Weather: BR  (mist)

METAR text: ZBTJ 180900Z 36002MPS 2800 BR SCT013 14/12 Q1022 NOSIG
Conditions at: ZBTJ (TIANJIN/ZHANGGUI, CN) observed 0900 UTC 18 October 2017
Temperature: 14.0°C (57°F)
Dewpoint: 12.0°C (54°F) [RH = 88%]
Pressure (altimeter): 30.18 inches Hg (1022.0 mb)
Winds: from the N (360 degrees) at 5 MPH (4 knots; 2.1 m/s)
Visibility: 1.74 miles (2.80 km)
Ceiling: at least 12,000 feet AGL
Clouds: scattered clouds at 1300 feet AGL
Weather: BR  (mist)

METAR text: ZBTJ 180830Z 01002MPS 2500 BR FEW013 14/12 Q1022 NOSIG
Conditions at: ZBTJ (TIANJIN/ZHANGGUI, CN) observed 0830 UTC 18 October 2017
Temperature: 14.0°C (57°F)
Dewpoint: 12.0°C (54°F) [RH = 88%]
Pressure (altimeter): 30.18 inches Hg (1022.0 mb)
Winds: from the N (10 degrees) at 5 MPH (4 knots; 2.1 m/s)
Visibility: 1.55 miles (2.49 km)
Ceiling: at least 12,000 feet AGL
Clouds: few clouds at 1300 feet AGL
Weather: BR  (mist)